createdAt,value
2018-11-05T00:00:38.080Z,11.40
2018-11-05T00:03:06.195Z,11.40
2018-11-05T00:05:34.098Z,11.40
2018-11-05T00:08:08.037Z,11.40
2018-11-05T00:10:35.541Z,11.50
2018-11-05T00:13:03.232Z,11.40
2018-11-05T00:15:31.835Z,11.40
2018-11-05T00:17:59.358Z,11.40
2018-11-05T00:20:26.872Z,11.50
2018-11-05T00:22:54.938Z,11.40
2018-11-05T00:25:22.446Z,11.40
2018-11-05T00:27:50.008Z,11.40
2018-11-05T00:30:17.551Z,11.50
2018-11-05T00:32:45.103Z,11.50
2018-11-05T00:35:12.926Z,11.50
2018-11-05T00:37:40.600Z,11.50
2018-11-05T00:40:10.574Z,11.40
2018-11-05T00:42:38.408Z,11.50
2018-11-05T00:45:07.571Z,11.40
2018-11-05T00:47:35.149Z,11.40
2018-11-05T00:50:03.433Z,11.40
2018-11-05T00:52:31.491Z,11.50
2018-11-05T00:54:59.208Z,11.50
2018-11-05T00:57:27.137Z,11.60
2018-11-05T00:59:54.568Z,11.50
2018-11-05T01:02:22.195Z,11.50
2018-11-05T01:04:49.953Z,11.40
2018-11-05T01:07:17.584Z,11.50
2018-11-05T01:09:45.738Z,11.40
2018-11-05T01:12:13.800Z,11.40
2018-11-05T01:14:41.294Z,11.40
2018-11-05T01:17:08.670Z,11.40
2018-11-05T01:19:36.260Z,11.40
2018-11-05T01:22:03.732Z,11.40
2018-11-05T01:24:31.208Z,11.30
2018-11-05T01:26:58.670Z,11.40
2018-11-05T01:29:26.182Z,11.40
2018-11-05T01:31:53.690Z,11.40
2018-11-05T01:34:21.157Z,11.30
2018-11-05T01:36:48.625Z,11.30
2018-11-05T01:39:16.125Z,11.30
2018-11-05T01:41:43.592Z,11.40
2018-11-05T01:44:11.027Z,11.40
2018-11-05T01:46:38.545Z,11.40
2018-11-05T01:49:06.099Z,11.40
2018-11-05T01:51:33.653Z,11.40
2018-11-05T01:54:01.097Z,11.40
2018-11-05T01:56:28.512Z,11.40
2018-11-05T01:58:56.088Z,11.50
2018-11-05T02:01:23.538Z,11.40
2018-11-05T02:03:51.053Z,11.30
2018-11-05T02:06:18.505Z,11.30
2018-11-05T02:08:45.943Z,11.20
2018-11-05T02:11:13.519Z,11.30
2018-11-05T02:13:41.034Z,11.30
2018-11-05T02:16:08.660Z,11.30
2018-11-05T02:18:36.119Z,11.30
2018-11-05T02:21:03.719Z,11.30
2018-11-05T02:23:31.316Z,11.20
2018-11-05T02:25:58.753Z,11.10
2018-11-05T02:28:26.181Z,11.10
2018-11-05T02:30:53.632Z,11.00
2018-11-05T02:33:21.017Z,11.00
2018-11-05T02:35:48.577Z,11.00
2018-11-05T02:38:16.035Z,10.90
2018-11-05T02:40:43.508Z,10.80
2018-11-05T02:43:11.039Z,10.80
2018-11-05T02:45:38.609Z,10.60
2018-11-05T02:48:06.095Z,10.60
2018-11-05T02:50:33.604Z,10.60
2018-11-05T02:53:02.019Z,10.50
2018-11-05T02:55:30.176Z,10.50
2018-11-05T02:57:58.538Z,10.50
2018-11-05T03:00:25.973Z,10.40
2018-11-05T03:02:53.480Z,10.40
2018-11-05T03:05:20.881Z,10.30
2018-11-05T03:07:49.055Z,10.30
2018-11-05T03:10:16.926Z,10.30
2018-11-05T03:12:45.941Z,10.30
2018-11-05T03:15:14.590Z,10.30
2018-11-05T03:17:42.700Z,10.20
2018-11-05T03:20:11.544Z,10.20
2018-11-05T03:22:40.042Z,10.20
2018-11-05T03:25:07.810Z,10.20
2018-11-05T03:27:35.440Z,10.20
2018-11-05T03:30:03.076Z,10.20
2018-11-05T03:32:30.629Z,10.20
2018-11-05T03:34:58.169Z,10.10
2018-11-05T03:37:25.919Z,10.20
2018-11-05T03:39:53.437Z,10.10
2018-11-05T03:42:20.932Z,10.10
2018-11-05T03:44:48.384Z,10.10
2018-11-05T03:47:15.895Z,10.20
2018-11-05T03:49:43.300Z,10.10
2018-11-05T03:52:10.763Z,10.10
2018-11-05T03:54:38.155Z,10.10
2018-11-05T03:57:05.807Z,10.00
2018-11-05T03:59:33.278Z,10.00
2018-11-05T04:02:01.460Z,9.80
2018-11-05T04:04:30.824Z,9.70
2018-11-05T04:06:58.374Z,9.80
2018-11-05T04:09:26.356Z,9.70
2018-11-05T04:11:53.785Z,9.70
2018-11-05T04:14:21.425Z,9.70
2018-11-05T04:16:49.058Z,9.70
2018-11-05T04:19:16.424Z,9.70
2018-11-05T04:21:44.774Z,9.70
2018-11-05T04:24:13.698Z,9.70
2018-11-05T04:26:42.476Z,9.60
2018-11-05T04:29:10.468Z,9.40
2018-11-05T04:31:39.315Z,9.50
2018-11-05T04:34:07.304Z,9.60
2018-11-05T04:36:35.166Z,9.50
2018-11-05T04:39:03.558Z,9.50
2018-11-05T04:41:31.022Z,9.50
2018-11-05T04:43:58.514Z,9.50
2018-11-05T04:46:25.880Z,9.40
2018-11-05T04:48:53.391Z,9.40
2018-11-05T04:51:20.994Z,9.40
2018-11-05T04:53:48.573Z,9.40
2018-11-05T04:56:15.988Z,9.40
2018-11-05T04:58:43.602Z,9.50
2018-11-05T05:01:11.046Z,9.50
2018-11-05T05:03:38.622Z,9.50
2018-11-05T05:06:06.146Z,9.50
2018-11-05T05:08:33.943Z,9.60
2018-11-05T05:11:01.316Z,9.60
2018-11-05T05:13:28.791Z,9.60
2018-11-05T05:15:56.227Z,9.60
2018-11-05T05:18:23.665Z,9.60
2018-11-05T05:20:51.071Z,9.60
2018-11-05T05:23:18.640Z,9.50
2018-11-05T05:25:46.043Z,9.50
2018-11-05T05:28:13.559Z,9.40
2018-11-05T05:30:41.066Z,9.40
2018-11-05T05:33:08.519Z,9.40
2018-11-05T05:35:36.055Z,9.40
2018-11-05T05:38:03.563Z,9.40
2018-11-05T05:40:31.083Z,9.40
2018-11-05T05:42:58.519Z,9.50
2018-11-05T05:45:26.104Z,9.50
2018-11-05T05:47:53.605Z,9.50
2018-11-05T05:50:21.042Z,9.60
2018-11-05T05:52:49.173Z,9.60
2018-11-05T05:55:16.794Z,9.70
2018-11-05T05:57:44.420Z,9.60
2018-11-05T06:00:13.607Z,9.60
2018-11-05T06:02:41.122Z,9.60
2018-11-05T06:05:10.112Z,9.60
2018-11-05T06:07:38.068Z,9.70
2018-11-05T06:10:05.833Z,9.70
2018-11-05T06:12:33.333Z,9.70
2018-11-05T06:15:00.811Z,9.60
2018-11-05T06:17:28.309Z,9.70
2018-11-05T06:19:55.911Z,9.60
2018-11-05T06:22:23.422Z,9.60
2018-11-05T06:24:50.925Z,9.60
2018-11-05T06:27:18.380Z,9.50
2018-11-05T06:29:46.473Z,9.50
2018-11-05T06:32:14.077Z,9.50
2018-11-05T06:34:41.492Z,9.60
2018-11-05T06:37:09.053Z,9.70
2018-11-05T06:39:36.604Z,9.70
2018-11-05T06:42:04.844Z,9.70
2018-11-05T06:44:32.235Z,9.70
2018-11-05T06:46:59.767Z,9.80
2018-11-05T06:49:27.249Z,9.80
2018-11-05T06:51:54.803Z,9.80
2018-11-05T06:54:22.266Z,9.90
2018-11-05T06:56:50.194Z,9.90
2018-11-05T06:59:17.791Z,10.00
2018-11-05T07:01:45.208Z,10.00
2018-11-05T07:04:12.654Z,10.10
2018-11-05T07:06:40.110Z,10.20
2018-11-05T07:09:10.012Z,10.20
2018-11-05T07:11:37.839Z,10.30
2018-11-05T07:14:05.518Z,10.30
2018-11-05T07:16:32.962Z,10.30
2018-11-05T07:19:00.668Z,10.40
2018-11-05T07:21:27.876Z,10.40
2018-11-05T07:23:55.434Z,10.50
2018-11-05T07:26:23.715Z,10.50
2018-11-05T07:28:51.218Z,10.60
2018-11-05T07:31:18.785Z,10.60
2018-11-05T07:33:46.377Z,10.80
2018-11-05T07:36:13.782Z,10.80
2018-11-05T07:38:41.400Z,10.90
2018-11-05T07:41:09.040Z,11.00
2018-11-05T07:43:36.600Z,11.10
2018-11-05T07:46:04.652Z,11.10
2018-11-05T07:48:32.158Z,11.20
2018-11-05T07:50:59.828Z,11.20
2018-11-05T07:53:27.249Z,11.40
2018-11-05T07:55:54.723Z,11.60
2018-11-05T07:58:22.205Z,11.70
2018-11-05T08:00:54.635Z,11.90
2018-11-05T08:03:22.065Z,12.00
2018-11-05T08:05:49.709Z,12.20
2018-11-05T08:08:17.155Z,12.30
2018-11-05T08:10:44.800Z,12.40
2018-11-05T08:13:12.284Z,12.60
2018-11-05T08:15:39.756Z,12.70
2018-11-05T08:20:41.553Z,12.70
2018-11-05T08:23:09.780Z,12.70
2018-11-05T08:25:37.232Z,12.60
2018-11-05T08:28:05.269Z,12.60
2018-11-05T08:30:32.682Z,12.60
2018-11-05T08:33:00.208Z,12.70
2018-11-05T08:35:27.867Z,12.70
2018-11-05T08:37:55.598Z,12.70
2018-11-05T08:40:25.130Z,12.80
2018-11-05T08:42:53.569Z,12.90
2018-11-05T08:45:22.573Z,12.90
2018-11-05T08:47:50.355Z,12.90
2018-11-05T08:50:18.901Z,12.90
2018-11-05T08:52:46.555Z,12.90
2018-11-05T08:55:16.679Z,12.90
2018-11-05T08:57:44.383Z,12.90
2018-11-05T09:00:15.847Z,12.90
2018-11-05T09:02:44.766Z,12.90
2018-11-05T09:05:12.666Z,12.90
2018-11-05T09:07:40.227Z,12.90
2018-11-05T09:10:07.966Z,13.00
2018-11-05T09:12:35.378Z,13.10
2018-11-05T09:15:03.097Z,13.10
2018-11-05T09:17:31.139Z,13.10
2018-11-05T09:19:58.661Z,13.10
2018-11-05T09:22:26.315Z,13.10
2018-11-05T09:24:53.863Z,13.20
2018-11-05T09:27:21.251Z,13.20
2018-11-05T09:29:48.681Z,13.30
2018-11-05T09:32:16.471Z,13.40
2018-11-05T09:34:43.936Z,13.50
2018-11-05T09:37:11.377Z,13.50
2018-11-05T09:39:38.876Z,13.60
2018-11-05T09:42:06.449Z,13.60
2018-11-05T09:44:33.871Z,13.60
2018-11-05T09:47:01.332Z,13.60
2018-11-05T09:49:28.756Z,13.60
2018-11-05T09:51:56.173Z,13.60
2018-11-05T09:54:23.749Z,13.50
2018-11-05T09:56:51.222Z,13.60
2018-11-05T09:59:18.775Z,13.60
2018-11-05T10:01:46.289Z,13.70
2018-11-05T10:04:14.479Z,13.60
2018-11-05T10:06:41.920Z,13.70
2018-11-05T10:09:11.515Z,13.70
2018-11-05T10:11:38.996Z,13.70
2018-11-05T10:14:06.607Z,13.60
2018-11-05T10:16:33.992Z,13.60
2018-11-05T10:19:01.629Z,13.60
2018-11-05T10:21:29.110Z,13.70
2018-11-05T10:23:57.532Z,13.70
2018-11-05T10:26:25.193Z,13.70
2018-11-05T10:28:52.659Z,13.70
2018-11-05T10:31:26.824Z,13.70
2018-11-05T10:33:54.305Z,13.70
2018-11-05T10:36:22.116Z,13.70
2018-11-05T10:38:49.774Z,13.70
2018-11-05T10:41:17.524Z,13.80
2018-11-05T10:43:45.036Z,13.80
2018-11-05T10:46:12.489Z,13.80
2018-11-05T10:48:40.042Z,13.80
2018-11-05T10:51:07.638Z,13.90
2018-11-05T10:53:35.278Z,13.90
2018-11-05T10:56:02.830Z,13.90
2018-11-05T10:58:30.346Z,13.90
2018-11-05T11:01:03.370Z,13.90
2018-11-05T11:03:33.799Z,13.90
2018-11-05T11:06:02.292Z,14.00
2018-11-05T11:08:30.065Z,14.00
2018-11-05T11:10:57.534Z,14.00
2018-11-05T11:13:25.624Z,14.00
2018-11-05T11:15:53.279Z,14.10
2018-11-05T11:18:20.812Z,14.20
2018-11-05T11:20:48.302Z,14.20
2018-11-05T11:23:15.738Z,14.20
2018-11-05T11:25:43.223Z,14.30
2018-11-05T11:28:10.884Z,14.40
2018-11-05T11:30:38.352Z,14.40
2018-11-05T11:33:06.631Z,14.40
2018-11-05T11:35:34.611Z,14.50
2018-11-05T11:38:02.072Z,14.60
2018-11-05T11:40:29.735Z,14.60
2018-11-05T11:42:57.165Z,14.60
2018-11-05T11:45:24.979Z,14.70
2018-11-05T11:47:52.519Z,14.70
2018-11-05T11:50:20.399Z,14.80
2018-11-05T11:52:48.430Z,14.80
2018-11-05T11:55:17.143Z,14.80
2018-11-05T11:57:44.753Z,14.80
2018-11-05T12:00:18.171Z,14.90
2018-11-05T12:02:46.342Z,14.90
2018-11-05T12:05:14.033Z,14.90
2018-11-05T12:07:42.729Z,14.90
2018-11-05T12:10:13.716Z,14.90
2018-11-05T12:12:41.423Z,15.00
2018-11-05T12:15:10.176Z,15.00
2018-11-05T12:17:38.032Z,15.10
2018-11-05T12:20:07.241Z,15.10
2018-11-05T12:22:34.648Z,15.20
2018-11-05T12:25:02.154Z,15.50
2018-11-05T12:27:29.654Z,16.10
2018-11-05T12:29:57.184Z,17.10
2018-11-05T12:32:24.861Z,18.00
2018-11-05T12:34:52.437Z,18.70
2018-11-05T12:37:20.199Z,19.10
2018-11-05T12:39:47.827Z,19.40
2018-11-05T12:42:16.168Z,20.20
2018-11-05T12:44:43.710Z,19.90
2018-11-05T12:47:11.142Z,20.30
2018-11-05T12:49:38.687Z,20.70
2018-11-05T12:52:06.175Z,20.50
2018-11-05T12:54:33.867Z,20.70
2018-11-05T12:57:01.354Z,20.30
2018-11-05T12:59:28.968Z,19.90
2018-11-05T13:01:57.763Z,19.60
2018-11-05T13:04:25.868Z,19.80
2018-11-05T13:06:53.816Z,19.70
2018-11-05T13:09:21.491Z,20.10
2018-11-05T13:11:49.293Z,20.10
2018-11-05T13:14:16.904Z,20.00
2018-11-05T13:16:45.335Z,19.70
2018-11-05T13:19:12.775Z,19.50
2018-11-05T13:21:40.324Z,19.60
2018-11-05T13:24:07.816Z,19.60
2018-11-05T13:26:35.403Z,19.80
2018-11-05T13:29:02.994Z,19.70
2018-11-05T13:31:30.539Z,20.50
2018-11-05T13:33:57.975Z,20.60
2018-11-05T13:36:25.443Z,20.80
2018-11-05T13:38:52.906Z,20.40
2018-11-05T13:41:20.348Z,21.10
2018-11-05T13:43:47.804Z,21.90
2018-11-05T13:46:15.774Z,23.10
2018-11-05T13:48:43.513Z,23.10
2018-11-05T13:51:10.146Z,23.40
2018-11-05T13:53:37.846Z,23.20
2018-11-05T13:56:05.476Z,23.90
2018-11-05T13:58:33.091Z,24.10
2018-11-05T14:01:00.513Z,24.90
2018-11-05T14:03:27.992Z,24.30
2018-11-05T14:05:55.819Z,24.00
2018-11-05T14:08:23.468Z,24.40
2018-11-05T14:10:51.026Z,24.40
2018-11-05T14:13:18.477Z,24.40
2018-11-05T14:15:46.035Z,23.10
2018-11-05T14:18:13.767Z,22.70
2018-11-05T14:20:41.356Z,21.30
2018-11-05T14:23:08.956Z,20.40
2018-11-05T14:25:36.539Z,19.80
2018-11-05T14:28:04.754Z,18.90
2018-11-05T14:30:31.877Z,18.70
2018-11-05T14:32:59.366Z,18.30
2018-11-05T14:35:26.952Z,17.90
2018-11-05T14:37:54.320Z,17.70
2018-11-05T14:40:21.805Z,17.60
2018-11-05T14:42:49.445Z,17.40
2018-11-05T14:45:18.334Z,17.20
2018-11-05T14:47:46.206Z,17.10
2018-11-05T14:50:15.551Z,17.00
2018-11-05T14:52:43.056Z,17.00
2018-11-05T14:55:13.163Z,16.90
2018-11-05T14:57:41.284Z,16.80
2018-11-05T15:00:12.138Z,16.80
2018-11-05T15:02:40.822Z,16.70
2018-11-05T15:05:09.963Z,16.60
2018-11-05T15:07:38.079Z,16.60
2018-11-05T15:10:07.158Z,16.50
2018-11-05T15:12:34.596Z,16.50
2018-11-05T15:15:02.155Z,16.40
2018-11-05T15:17:29.721Z,16.20
2018-11-05T15:19:57.727Z,16.10
2018-11-05T15:22:25.060Z,16.10
2018-11-05T15:24:53.389Z,16.00
2018-11-05T15:27:20.871Z,15.80
2018-11-05T15:29:48.571Z,15.80
2018-11-05T15:32:16.010Z,15.80
2018-11-05T15:34:43.534Z,15.70
2018-11-05T15:37:10.982Z,15.60
2018-11-05T15:39:38.501Z,15.60
2018-11-05T15:42:06.145Z,15.50
2018-11-05T15:44:33.701Z,15.40
2018-11-05T15:47:01.424Z,15.40
2018-11-05T15:49:29.578Z,15.20
2018-11-05T15:51:57.519Z,15.20
2018-11-05T15:54:26.410Z,15.10
2018-11-05T15:56:53.770Z,15.10
2018-11-05T15:59:21.450Z,15.10
2018-11-05T16:01:48.971Z,15.00
2018-11-05T16:04:16.444Z,15.00
2018-11-05T16:06:43.844Z,14.90
2018-11-05T16:09:11.534Z,14.80
2018-11-05T16:11:39.077Z,14.80
2018-11-05T16:14:07.481Z,14.80
2018-11-05T16:16:35.312Z,14.70
2018-11-05T16:19:02.920Z,14.70
2018-11-05T16:21:30.461Z,14.60
2018-11-05T16:23:57.960Z,14.50
2018-11-05T16:26:25.617Z,14.40
2018-11-05T16:28:53.073Z,14.40
2018-11-05T16:31:20.591Z,14.30
2018-11-05T16:33:48.319Z,14.30
2018-11-05T16:36:16.085Z,14.20
2018-11-05T16:38:43.484Z,14.10
2018-11-05T16:41:10.881Z,14.00
2018-11-05T16:43:38.386Z,13.90
2018-11-05T16:46:06.707Z,13.90
2018-11-05T16:48:34.424Z,13.90
2018-11-05T16:51:01.903Z,13.80
2018-11-05T16:53:29.633Z,13.80
2018-11-05T16:55:57.137Z,13.80
2018-11-05T16:58:24.722Z,13.80
2018-11-05T17:00:52.443Z,13.80
2018-11-05T17:03:19.887Z,13.80
2018-11-05T17:05:47.202Z,13.80
2018-11-05T17:08:14.659Z,13.70
2018-11-05T17:10:42.117Z,13.60
2018-11-05T17:13:09.679Z,13.60
2018-11-05T17:15:37.060Z,13.50
2018-11-05T17:18:04.634Z,13.50
2018-11-05T17:20:32.071Z,13.60
2018-11-05T17:22:59.535Z,13.50
2018-11-05T17:25:27.128Z,13.30
2018-11-05T17:27:55.198Z,13.20
2018-11-05T17:30:22.985Z,13.10
2018-11-05T17:32:51.208Z,13.10
2018-11-05T17:35:19.483Z,13.10
2018-11-05T17:37:47.885Z,13.10
2018-11-05T17:40:16.958Z,13.10
2018-11-05T17:42:44.595Z,13.10
2018-11-05T17:45:13.553Z,13.10
2018-11-05T17:47:41.336Z,13.00
2018-11-05T17:50:12.356Z,13.00
2018-11-05T17:52:40.567Z,13.10
2018-11-05T17:55:09.567Z,13.00
2018-11-05T17:57:37.163Z,12.90
2018-11-05T18:00:07.800Z,13.00
2018-11-05T18:02:35.474Z,12.90
2018-11-05T18:05:03.067Z,12.90
2018-11-05T18:07:30.490Z,12.90
2018-11-05T18:09:58.053Z,12.80
2018-11-05T18:12:25.514Z,12.80
2018-11-05T18:14:53.000Z,12.70
2018-11-05T18:17:20.537Z,12.50
2018-11-05T18:19:47.993Z,12.50
2018-11-05T18:22:15.517Z,12.40
2018-11-05T18:24:43.098Z,12.50
2018-11-05T18:27:10.923Z,12.30
2018-11-05T18:29:38.571Z,12.30
2018-11-05T18:32:06.233Z,12.20
2018-11-05T18:34:33.700Z,12.00
2018-11-05T18:37:01.180Z,12.00
2018-11-05T18:39:28.675Z,11.90
2018-11-05T18:41:56.324Z,11.90
2018-11-05T18:44:24.116Z,12.00
2018-11-05T18:46:52.236Z,11.90
2018-11-05T18:49:19.877Z,11.90
2018-11-05T18:51:47.344Z,11.90
2018-11-05T18:54:14.985Z,11.90
2018-11-05T18:56:42.539Z,11.80
2018-11-05T18:59:10.004Z,11.80
2018-11-05T19:01:38.349Z,11.80
2018-11-05T19:04:05.811Z,11.70
2018-11-05T19:06:33.241Z,11.70
2018-11-05T19:09:00.692Z,11.70
2018-11-05T19:11:28.419Z,11.70
2018-11-05T19:13:57.333Z,11.70
2018-11-05T19:16:25.224Z,11.70
2018-11-05T19:18:52.712Z,11.70
2018-11-05T19:21:20.281Z,11.60
2018-11-05T19:23:48.439Z,11.50
2018-11-05T19:26:15.721Z,11.50
2018-11-05T19:28:43.420Z,11.60
2018-11-05T19:31:10.903Z,11.60
2018-11-05T19:33:38.388Z,11.60
2018-11-05T19:36:07.360Z,11.60
2018-11-05T19:38:34.863Z,11.60
2018-11-05T19:41:02.338Z,11.50
2018-11-05T19:43:30.681Z,11.40
2018-11-05T19:45:58.493Z,11.50
2018-11-05T19:48:26.092Z,11.50
2018-11-05T19:50:53.890Z,11.50
2018-11-05T19:53:21.441Z,11.50
2018-11-05T19:55:48.990Z,11.50
2018-11-05T19:58:16.503Z,11.50
2018-11-05T20:00:44.020Z,11.50
2018-11-05T20:03:11.378Z,11.50
2018-11-05T20:05:39.008Z,11.40
2018-11-05T20:08:06.441Z,11.40
2018-11-05T20:10:33.909Z,11.40
2018-11-05T20:13:01.514Z,11.30
2018-11-05T20:15:29.118Z,11.30
2018-11-05T20:17:56.945Z,11.20
2018-11-05T20:20:25.334Z,11.20
2018-11-05T20:22:52.886Z,11.20
2018-11-05T20:25:20.532Z,11.20
2018-11-05T20:27:48.062Z,11.10
2018-11-05T20:30:19.543Z,11.00
2018-11-05T20:32:48.458Z,10.90
2018-11-05T20:35:15.534Z,10.90
2018-11-05T20:37:43.141Z,10.90
2018-11-05T20:40:12.525Z,10.90
2018-11-05T20:42:40.719Z,10.80
2018-11-05T20:45:08.585Z,10.80
2018-11-05T20:47:36.117Z,10.70
2018-11-05T20:50:04.469Z,10.60
2018-11-05T20:52:32.143Z,10.60
2018-11-05T20:54:59.823Z,10.50
2018-11-05T20:57:27.490Z,10.50
2018-11-05T20:59:55.258Z,10.50
2018-11-05T21:02:23.052Z,10.50
2018-11-05T21:04:50.822Z,10.50
2018-11-05T21:07:18.241Z,10.50
2018-11-05T21:09:45.876Z,10.50
2018-11-05T21:12:13.384Z,10.40
2018-11-05T21:14:41.023Z,10.40
2018-11-05T21:17:08.551Z,10.50
2018-11-05T21:19:36.199Z,10.50
2018-11-05T21:22:03.935Z,10.50
2018-11-05T21:24:31.600Z,10.60
2018-11-05T21:26:59.450Z,10.70
2018-11-05T21:29:26.850Z,10.70
2018-11-05T21:31:54.587Z,10.80
2018-11-05T21:34:22.083Z,10.80
2018-11-05T21:36:49.749Z,10.90
2018-11-05T21:39:17.326Z,10.90
2018-11-05T21:41:44.761Z,10.90
2018-11-05T21:44:12.208Z,10.90
2018-11-05T21:46:39.987Z,10.90
2018-11-05T21:49:07.730Z,10.90
2018-11-05T21:51:35.418Z,10.90
2018-11-05T21:54:03.124Z,10.90
2018-11-05T21:56:30.724Z,10.90
2018-11-05T21:58:58.275Z,10.90
2018-11-05T22:01:27.287Z,10.90
2018-11-05T22:03:55.043Z,10.80
2018-11-05T22:06:22.973Z,10.70
2018-11-05T22:08:50.497Z,10.80
2018-11-05T22:11:17.949Z,10.70
2018-11-05T22:13:45.501Z,10.80
2018-11-05T22:16:12.995Z,10.70
2018-11-05T22:18:40.519Z,10.80
2018-11-05T22:21:08.084Z,10.70
2018-11-05T22:23:35.568Z,10.70
2018-11-05T22:26:03.064Z,10.70
2018-11-05T22:28:30.513Z,10.70
2018-11-05T22:30:58.053Z,10.70
2018-11-05T22:33:25.539Z,10.70
2018-11-05T22:35:53.131Z,10.70
2018-11-05T22:38:20.732Z,10.70
2018-11-05T22:40:48.273Z,10.60
2018-11-05T22:43:15.843Z,10.60
2018-11-05T22:45:43.220Z,10.60
2018-11-05T22:48:10.795Z,10.60
2018-11-05T22:50:38.257Z,10.50
2018-11-05T22:53:05.745Z,10.40
2018-11-05T22:55:33.187Z,10.50
2018-11-05T22:58:00.706Z,10.50
2018-11-05T23:00:33.898Z,10.50
2018-11-05T23:03:07.068Z,10.40
2018-11-05T23:05:34.530Z,10.40
2018-11-05T23:08:01.949Z,10.40
2018-11-05T23:10:29.403Z,10.40
2018-11-05T23:12:56.914Z,10.40
2018-11-05T23:15:24.308Z,10.40
2018-11-05T23:17:51.999Z,10.40
2018-11-05T23:20:19.561Z,10.40
2018-11-05T23:22:47.034Z,10.40
2018-11-05T23:25:14.609Z,10.40
2018-11-05T23:27:41.979Z,10.40
2018-11-05T23:30:11.862Z,10.40
2018-11-05T23:32:40.015Z,10.40
2018-11-05T23:35:08.256Z,10.40
2018-11-05T23:37:36.538Z,10.40
2018-11-05T23:40:04.435Z,10.40
2018-11-05T23:42:31.996Z,10.30
2018-11-05T23:44:59.595Z,10.40
2018-11-05T23:47:28.317Z,10.30
2018-11-05T23:49:56.981Z,10.40
2018-11-05T23:52:24.976Z,10.40
2018-11-05T23:54:52.666Z,10.40
2018-11-05T23:57:20.728Z,10.40
2018-11-05T23:59:48.342Z,10.40
